Time;durP1;ratioP1;P1;durP2;ratioP2;P2;SDS_P1;SDS_P2;PMS_P1;PMS_P2;Temp;Humidity;BMP_temperature;BMP_pressure;BME280_temperature;BME280_humidity;BME280_pressure;Samples;Min_cycle;Max_cycle;Signal;HPM_P1;HPM_P2
2023/04/23 00:01:07;;;;;;;149.88;70.00;;;6.60;99.90;;;;;;4861452;29;20432;-89
2023/04/23 00:03:35;;;;;;;235.50;77.65;;;6.80;99.90;;;;;;4859055;29;20615;-90
2023/04/23 00:06:12;;;;;;;211.82;69.72;;;6.80;99.90;;;;;;4861669;29;20445;-91
2023/04/23 00:08:39;;;;;;;297.15;72.55;;;6.70;99.90;;;;;;4859323;29;20731;-90
2023/04/23 00:11:05;;;;;;;249.68;71.90;;;6.70;99.90;;;;;;4876810;29;20422;-89
2023/04/23 00:13:31;;;;;;;285.30;71.30;;;6.90;99.90;;;;;;4860093;29;20419;-90
2023/04/23 00:15:57;;;;;;;303.58;70.53;;;6.80;99.90;;;;;;4861282;29;20431;-90
2023/04/23 00:18:23;;;;;;;341.00;73.55;;;6.80;99.90;;;;;;4861261;29;20505;-89
2023/04/23 00:20:49;;;;;;;285.65;69.53;;;7.10;99.90;;;;;;4859683;29;20578;-90
2023/04/23 00:23:15;;;;;;;337.23;71.75;;;6.80;99.90;;;;;;4861680;29;20778;-92
2023/04/23 00:25:40;;;;;;;191.27;65.18;;;6.80;99.90;;;;;;4856350;29;20790;-90
2023/04/23 00:28:06;;;;;;;428.97;84.10;;;6.90;99.90;;;;;;4842828;29;21144;-90
2023/04/23 00:30:32;;;;;;;245.85;68.20;;;7.00;99.90;;;;;;4841162;29;20427;-91
2023/04/23 00:32:58;;;;;;;272.15;68.63;;;6.90;99.90;;;;;;4842927;29;20472;-90
2023/04/23 00:35:24;;;;;;;253.90;70.30;;;6.90;99.90;;;;;;4842156;29;20918;-89
2023/04/23 00:37:49;;;;;;;241.80;67.32;;;7.00;99.90;;;;;;4842219;29;20434;-91
2023/04/23 00:40:15;;;;;;;227.70;68.28;;;6.90;99.90;;;;;;4842647;29;20451;-89
2023/04/23 00:42:43;;;;;;;230.63;69.30;;;7.20;99.90;;;;;;4840853;29;20800;-90
2023/04/23 00:45:09;;;;;;;271.88;72.65;;;6.90;99.90;;;;;;4842977;29;20447;-91
2023/04/23 00:47:35;;;;;;;233.98;67.70;;;7.00;99.90;;;;;;4856437;29;20420;-91
2023/04/23 00:50:01;;;;;;;317.38;73.68;;;7.10;99.90;;;;;;4843041;29;20412;-91
2023/04/23 00:52:28;;;;;;;437.95;84.05;;;7.40;99.90;;;;;;4841683;29;20866;-90
2023/04/23 00:54:54;;;;;;;359.15;76.82;;;7.20;99.90;;;;;;4842276;29;21001;-90
2023/04/23 00:57:21;;;;;;;318.45;74.72;;;7.20;99.90;;;;;;4842421;29;20478;-91
2023/04/23 00:59:47;;;;;;;259.73;70.70;;;7.10;99.90;;;;;;4840971;29;20432;-90
2023/04/23 01:02:13;;;;;;;495.02;85.10;;;7.10;99.90;;;;;;4842528;29;20839;-91
2023/04/23 01:04:42;;;;;;;232.48;69.25;;;7.00;99.90;;;;;;4840510;29;20444;-91
2023/04/23 01:07:08;;;;;;;480.33;84.60;;;7.20;99.90;;;;;;4842429;29;20420;-90
2023/04/23 01:09:34;;;;;;;404.77;75.35;;;7.20;99.90;;;;;;4840989;29;20424;-91
2023/04/23 01:12:01;;;;;;;346.10;72.47;;;7.00;99.90;;;;;;4842488;29;20432;-92
2023/04/23 01:14:27;;;;;;;284.25;71.38;;;7.10;99.90;;;;;;4841696;29;20433;-90
2023/04/23 01:16:53;;;;;;;289.73;69.50;;;7.10;99.90;;;;;;4840804;29;21006;-90
2023/04/23 01:19:18;;;;;;;278.45;71.82;;;7.00;99.90;;;;;;4842398;29;20507;-91
2023/04/23 01:21:44;;;;;;;294.30;71.73;;;7.00;99.90;;;;;;4840347;29;20431;-89
2023/04/23 01:24:11;;;;;;;263.77;69.50;;;7.40;99.90;;;;;;4841486;29;20512;-91
2023/04/23 01:26:37;;;;;;;347.80;76.40;;;7.10;99.90;;;;;;4840037;29;20413;-90
2023/04/23 01:29:04;;;;;;;265.70;75.90;;;6.90;99.90;;;;;;4842230;29;20417;-90
2023/04/23 01:31:30;;;;;;;207.63;71.03;;;6.70;99.90;;;;;;4840917;29;20421;-91
2023/04/23 01:33:57;;;;;;;240.50;75.70;;;7.60;99.90;;;;;;4841102;29;20464;-91
2023/04/23 01:36:24;;;;;;;238.88;72.00;;;7.00;99.90;;;;;;4842063;29;20462;-90
2023/04/23 01:38:50;;;;;;;175.40;68.82;;;6.90;99.90;;;;;;4839866;29;20448;-91
2023/04/23 01:41:16;;;;;;;167.43;67.10;;;6.70;99.90;;;;;;4842247;29;20793;-91
2023/04/23 01:43:45;;;;;;;172.40;69.10;;;6.80;99.90;;;;;;4839753;29;20449;-90
2023/04/23 01:46:11;;;;;;;165.70;66.60;;;6.80;99.90;;;;;;4841971;29;20512;-90
2023/04/23 01:48:37;;;;;;;190.63;68.43;;;7.10;99.90;;;;;;4839948;29;20417;-91
2023/04/23 01:51:03;;;;;;;172.45;69.05;;;7.10;99.90;;;;;;4841568;29;20440;-89
2023/04/23 01:53:29;;;;;;;193.32;71.90;;;6.80;99.90;;;;;;4841177;29;20488;-90
2023/04/23 01:55:55;;;;;;;173.75;68.70;;;7.20;99.90;;;;;;4840706;29;20432;-92
2023/04/23 01:58:23;;;;;;;178.73;72.50;;;6.80;99.90;;;;;;4841586;29;22708;-90
2023/04/23 02:00:49;;;;;;;190.82;71.43;;;6.70;99.90;;;;;;4839785;29;20922;-91
2023/04/23 02:03:15;;;;;;;215.63;79.45;;;6.90;99.90;;;;;;4841706;29;20484;-90
2023/04/23 02:05:42;;;;;;;218.43;80.82;;;6.90;99.90;;;;;;4839519;29;20439;-90
2023/04/23 02:08:08;;;;;;;363.55;94.18;;;7.20;99.90;;;;;;4841648;29;20449;-91
2023/04/23 02:10:34;;;;;;;321.75;91.88;;;7.10;99.90;;;;;;4840560;29;20425;-90
2023/04/23 02:13:00;;;;;;;317.30;90.30;;;7.00;99.90;;;;;;4841372;29;20499;-92
2023/04/23 02:15:27;;;;;;;371.65;96.95;;;7.00;99.90;;;;;;4841361;29;20428;-91
2023/04/23 02:17:53;;;;;;;362.63;97.65;;;7.00;99.90;;;;;;4840183;29;20424;-90
2023/04/23 02:20:19;;;;;;;385.00;98.72;;;7.10;99.90;;;;;;4841215;29;20949;-91
2023/04/23 02:22:46;;;;;;;621.28;116.13;;;7.10;99.90;;;;;;4840002;29;20507;-90
2023/04/23 02:25:14;;;;;;;665.05;118.22;;;7.20;99.90;;;;;;4841456;29;20444;-88
2023/04/23 02:27:41;;;;;;;506.20;112.30;;;7.50;99.90;;;;;;4840112;29;20435;-90
2023/04/23 02:30:08;;;;;;;599.90;117.03;;;7.30;99.90;;;;;;4841242;29;20425;-91
2023/04/23 02:32:35;;;;;;;560.77;114.03;;;7.30;99.90;;;;;;4840750;29;20417;-89
2023/04/23 02:35:02;;;;;;;623.45;119.55;;;7.30;99.90;;;;;;4840051;29;20805;-90
2023/04/23 02:37:27;;;;;;;708.00;125.47;;;7.60;99.90;;;;;;4844671;29;20427;-90
2023/04/23 02:39:53;;;;;;;514.00;113.27;;;7.40;99.90;;;;;;4842241;29;20922;-91
2023/04/23 02:42:19;;;;;;;708.35;124.60;;;7.50;99.90;;;;;;4845001;29;20431;-92
2023/04/23 02:44:45;;;;;;;599.97;120.38;;;7.50;99.90;;;;;;4843153;29;20444;-91
2023/04/23 02:47:11;;;;;;;660.15;122.70;;;7.50;99.90;;;;;;4844783;29;20424;-91
2023/04/23 02:49:37;;;;;;;696.22;129.13;;;7.30;99.90;;;;;;4844203;29;20516;-91
2023/04/23 02:52:03;;;;;;;665.50;124.72;;;7.50;99.90;;;;;;4844713;29;20436;-91
2023/04/23 02:54:31;;;;;;;605.13;118.15;;;7.50;99.90;;;;;;4844993;29;21023;-90
2023/04/23 02:56:57;;;;;;;661.17;122.43;;;7.60;99.90;;;;;;4842947;29;20986;-91
2023/04/23 02:59:22;;;;;;;546.80;115.07;;;7.70;99.90;;;;;;4845006;29;20515;-91
2023/04/23 03:01:48;;;;;;;659.65;123.55;;;7.90;99.90;;;;;;4843274;29;20492;-93
2023/04/23 03:04:14;;;;;;;777.80;129.37;;;7.70;99.90;;;;;;4844651;29;20475;-92
2023/04/23 03:06:40;;;;;;;688.43;127.87;;;7.70;99.90;;;;;;4843486;29;20439;-90
2023/04/23 03:09:06;;;;;;;588.97;126.30;;;7.70;99.90;;;;;;4844197;29;20423;-92
2023/04/23 03:11:33;;;;;;;603.00;129.25;;;7.90;99.90;;;;;;4844412;29;20783;-90
2023/04/23 03:13:58;;;;;;;527.35;124.57;;;7.70;99.90;;;;;;4843287;29;20503;-92
2023/04/23 03:16:26;;;;;;;451.52;120.18;;;8.30;99.90;;;;;;4844416;29;20511;-92
2023/04/23 03:18:52;;;;;;;406.52;114.97;;;7.90;99.90;;;;;;4842968;29;20461;-93
2023/04/23 03:21:18;;;;;;;459.00;121.20;;;8.00;99.90;;;;;;4844476;29;20409;-91
2023/04/23 03:23:43;;;;;;;469.10;123.50;;;8.00;99.90;;;;;;4842589;29;20448;-92
2023/04/23 03:26:09;;;;;;;419.40;118.93;;;7.80;99.90;;;;;;4844184;29;20531;-92
2023/04/23 03:28:35;;;;;;;424.52;118.75;;;7.60;99.90;;;;;;4843051;29;20431;-91
2023/04/23 03:31:00;;;;;;;368.20;112.27;;;7.80;99.90;;;;;;4843273;29;20431;-90
2023/04/23 03:33:26;;;;;;;386.57;114.20;;;7.80;99.90;;;;;;4844920;29;20420;-92
2023/04/23 03:35:52;;;;;;;413.40;117.60;;;7.90;99.90;;;;;;4842243;29;20437;-91
2023/04/23 03:38:17;;;;;;;439.67;119.82;;;7.70;99.90;;;;;;4844246;29;20436;-91
2023/04/23 03:40:44;;;;;;;432.00;120.23;;;7.80;99.90;;;;;;4842081;29;20417;-91
2023/04/23 03:43:09;;;;;;;394.10;115.93;;;7.80;99.90;;;;;;4844285;29;20481;-90
2023/04/23 03:45:35;;;;;;;401.50;117.63;;;8.10;99.90;;;;;;4842407;29;20925;-90
2023/04/23 03:48:01;;;;;;;392.02;115.03;;;7.90;99.90;;;;;;4842955;29;20421;-91
2023/04/23 03:50:26;;;;;;;433.33;121.32;;;7.90;99.90;;;;;;4843610;29;20936;-92
2023/04/23 03:52:52;;;;;;;417.57;120.53;;;7.90;99.90;;;;;;4842430;29;20428;-91
2023/04/23 03:55:19;;;;;;;421.23;120.40;;;8.10;99.90;;;;;;4844213;29;20431;-90
2023/04/23 03:57:45;;;;;;;440.97;120.60;;;8.00;99.90;;;;;;4842038;29;20930;-89
2023/04/23 04:00:12;;;;;;;422.27;119.07;;;8.00;99.90;;;;;;4843863;29;20436;-90
2023/04/23 04:02:38;;;;;;;460.38;124.85;;;7.90;99.90;;;;;;4841659;29;20519;-89
2023/04/23 04:05:05;;;;;;;440.52;124.50;;;8.20;99.90;;;;;;4843622;29;20452;-91
2023/04/23 04:07:31;;;;;;;432.55;123.35;;;8.10;99.90;;;;;;4842673;29;20429;-90
2023/04/23 04:09:56;;;;;;;420.25;121.68;;;8.10;99.90;;;;;;4842554;29;20439;-90
2023/04/23 04:12:22;;;;;;;426.42;119.82;;;8.30;99.90;;;;;;4843331;29;20493;-91
2023/04/23 04:14:48;;;;;;;438.67;124.07;;;8.20;99.90;;;;;;4841531;29;21023;-90
2023/04/23 04:17:14;;;;;;;457.90;124.53;;;7.70;99.90;;;;;;4843759;29;20428;-91
2023/04/23 04:19:41;;;;;;;447.90;126.15;;;8.10;99.90;;;;;;4841170;29;20420;-91
2023/04/23 04:22:08;;;;;;;448.38;126.00;;;8.10;99.90;;;;;;4843428;29;20413;-91
2023/04/23 04:24:34;;;;;;;444.67;124.77;;;7.90;99.90;;;;;;4841477;29;21113;-91
2023/04/23 04:27:01;;;;;;;395.98;121.78;;;8.30;99.90;;;;;;4842845;29;20421;-91
2023/04/23 04:29:27;;;;;;;419.08;121.18;;;8.10;99.90;;;;;;4843247;29;20425;-90
2023/04/23 04:31:53;;;;;;;395.33;118.43;;;8.50;99.90;;;;;;4841584;29;20444;-91
2023/04/23 04:34:19;;;;;;;398.70;120.88;;;8.40;99.90;;;;;;4841096;29;20715;-90
2023/04/23 04:36:45;;;;;;;427.52;120.25;;;8.00;99.90;;;;;;4841936;29;20446;-90
2023/04/23 04:39:36;;;;;;;399.20;119.07;;;8.20;99.90;;;;;;4861163;29;20982;-92
2023/04/23 04:42:03;;;;;;;435.90;121.75;;;8.00;99.90;;;;;;4859201;29;20430;-91
2023/04/23 04:44:29;;;;;;;412.70;119.70;;;8.00;99.90;;;;;;4861321;29;20960;-91
2023/04/23 04:46:57;;;;;;;416.05;122.88;;;8.00;99.90;;;;;;4859786;29;20423;-90
2023/04/23 04:49:23;;;;;;;387.75;116.55;;;7.80;99.90;;;;;;4861075;29;20419;-88
2023/04/23 04:51:49;;;;;;;424.70;121.47;;;8.70;99.90;;;;;;4859670;29;20925;-90
2023/04/23 04:54:14;;;;;;;455.25;122.38;;;8.20;99.90;;;;;;4860926;29;21095;-90
2023/04/23 04:56:40;;;;;;;452.70;121.37;;;8.00;99.90;;;;;;4859128;29;20411;-91
2023/04/23 04:59:06;;;;;;;420.13;120.17;;;7.70;99.90;;;;;;4860984;29;20567;-91
2023/04/23 05:01:32;;;;;;;430.08;121.07;;;8.10;99.90;;;;;;4859876;29;20958;-91
2023/04/23 05:03:58;;;;;;;405.10;118.50;;;8.10;99.90;;;;;;4859768;29;20450;-91
2023/04/23 05:06:24;;;;;;;379.60;116.00;;;8.30;99.90;;;;;;4860697;29;20437;-90
2023/04/23 05:08:50;;;;;;;367.95;114.40;;;8.30;99.90;;;;;;4858367;29;20780;-91
2023/04/23 05:11:18;;;;;;;419.67;120.57;;;8.30;99.90;;;;;;4860930;29;20936;-89
2023/04/23 05:13:45;;;;;;;370.92;116.10;;;8.10;99.90;;;;;;4850045;29;20440;-92
2023/04/23 05:16:11;;;;;;;417.23;119.35;;;8.40;99.90;;;;;;4841629;29;20428;-92
2023/04/23 05:18:37;;;;;;;381.95;115.90;;;8.20;99.90;;;;;;4839720;29;20412;-89
2023/04/23 05:21:04;;;;;;;377.45;115.47;;;8.30;99.90;;;;;;4841184;29;20417;-90
2023/04/23 05:23:29;;;;;;;349.33;113.80;;;8.30;99.90;;;;;;4841059;29;20428;-90
2023/04/23 05:25:56;;;;;;;372.75;114.97;;;8.40;99.90;;;;;;4840502;29;20437;-90
2023/04/23 05:28:22;;;;;;;293.95;106.40;;;8.20;99.90;;;;;;4841197;29;20831;-90
2023/04/23 05:30:49;;;;;;;281.25;105.93;;;8.40;99.90;;;;;;4839963;29;20424;-91
2023/04/23 05:33:15;;;;;;;292.27;104.43;;;8.50;99.90;;;;;;4841634;29;20440;-90
2023/04/23 05:35:41;;;;;;;281.08;103.43;;;8.50;99.90;;;;;;4838135;29;20938;-91
2023/04/23 05:38:06;;;;;;;253.02;98.57;;;8.60;99.90;;;;;;4841728;29;20424;-90
2023/04/23 05:40:32;;;;;;;240.25;96.55;;;9.00;99.90;;;;;;4840260;29;20440;-89
2023/04/23 05:42:58;;;;;;;245.57;97.95;;;8.70;99.90;;;;;;4840898;29;20512;-90
2023/04/23 05:45:24;;;;;;;236.57;96.03;;;8.90;99.90;;;;;;4841308;29;20531;-90
2023/04/23 05:47:50;;;;;;;228.05;94.05;;;8.80;99.90;;;;;;4839965;29;20504;-89
2023/04/23 05:50:16;;;;;;;188.52;88.45;;;9.00;99.90;;;;;;4851578;29;20423;-89
2023/04/23 05:52:42;;;;;;;184.30;88.15;;;8.80;99.90;;;;;;4857498;29;20522;-89
2023/04/23 05:55:08;;;;;;;167.45;82.35;;;9.30;99.90;;;;;;4843149;29;20511;-90
2023/04/23 05:57:35;;;;;;;188.65;85.65;;;8.90;99.90;;;;;;4839452;29;20424;-90
2023/04/23 06:00:03;;;;;;;195.18;87.63;;;8.90;99.90;;;;;;4840042;29;20432;-90
2023/04/23 06:02:28;;;;;;;171.63;82.63;;;9.00;99.90;;;;;;4840620;29;21072;-90
2023/04/23 06:04:54;;;;;;;129.37;72.17;;;9.10;99.90;;;;;;4840180;29;20610;-89
2023/04/23 06:07:20;;;;;;;128.82;71.97;;;9.30;99.90;;;;;;4841251;29;20420;-90
2023/04/23 06:09:46;;;;;;;131.55;73.25;;;9.20;99.90;;;;;;4841590;29;20421;-92
2023/04/23 06:12:11;;;;;;;125.18;71.25;;;9.20;99.90;;;;;;4847570;29;20428;-91
2023/04/23 06:14:37;;;;;;;106.87;65.80;;;9.50;99.90;;;;;;4861503;29;20516;-89
2023/04/23 06:17:03;;;;;;;113.80;66.75;;;9.10;99.90;;;;;;4847030;29;20936;-90
2023/04/23 06:19:28;;;;;;;112.47;66.07;;;9.40;99.90;;;;;;4842350;29;20459;-92
2023/04/23 06:21:54;;;;;;;125.33;71.43;;;9.50;99.90;;;;;;4846637;29;20417;-91
2023/04/23 06:24:20;;;;;;;110.40;67.03;;;9.60;99.90;;;;;;4846682;29;20451;-90
2023/04/23 06:26:45;;;;;;;114.47;69.15;;;9.50;99.90;;;;;;4860450;29;20938;-90
2023/04/23 06:29:11;;;;;;;98.20;63.33;;;9.60;99.90;;;;;;4847194;29;20420;-89
2023/04/23 06:31:37;;;;;;;102.93;65.53;;;10.40;99.90;;;;;;4845168;29;20447;-91
2023/04/23 06:34:02;;;;;;;96.90;63.80;;;10.10;99.90;;;;;;4846915;29;20435;-90
2023/04/23 06:36:28;;;;;;;100.63;64.40;;;10.70;99.90;;;;;;4843949;29;20468;-90
2023/04/23 06:38:54;;;;;;;90.50;59.93;;;10.30;99.90;;;;;;4846839;29;20431;-92
2023/04/23 06:41:20;;;;;;;93.55;64.30;;;10.40;99.90;;;;;;4845528;29;20422;-90
2023/04/23 06:44:15;;;;;;;96.88;64.28;;;10.30;99.90;;;;;;4864268;29;20451;-95
2023/04/23 06:46:43;;;;;;;87.20;60.80;;;10.50;99.90;;;;;;4838269;29;20452;-95
2023/04/23 06:49:09;;;;;;;84.78;59.78;;;10.80;99.90;;;;;;4865056;29;20425;-93
2023/04/23 06:55:44;;;;;;;82.85;58.78;;;10.70;99.90;;;;;;5110404;23;20457;-95
2023/04/23 06:59:01;;;;;;;95.10;63.23;;;10.70;99.90;;;;;;5120876;24;20458;-95
2023/04/23 07:01:39;;;;;;;82.90;59.33;;;10.80;99.90;;;;;;4881027;29;20407;-96
2023/04/23 07:04:08;;;;;;;84.38;60.78;;;10.90;99.90;;;;;;4880491;29;20499;-95
2023/04/23 07:06:42;;;;;;;77.65;57.70;;;11.00;99.90;;;;;;4911403;23;20504;-95
2023/04/23 07:09:20;;;;;;;77.22;57.83;;;11.20;99.90;;;;;;4858170;29;20432;-95
2023/04/23 07:15:26;;;;;;;70.10;54.05;;;11.30;99.90;;;;;;5569454;23;20451;-95
2023/04/23 07:18:43;;;;;;;67.45;52.33;;;11.40;99.90;;;;;;4929222;24;20508;-95
2023/04/23 07:21:54;;;;;;;69.90;55.13;;;11.60;99.90;;;;;;5055982;23;20444;-94
2023/04/23 07:24:29;;;;;;;68.28;53.83;;;11.80;99.90;;;;;;4807503;29;20457;-95
2023/04/23 07:27:41;;;;;;;64.13;51.78;;;12.00;99.90;;;;;;4805051;29;20441;-96
2023/04/23 07:31:01;;;;;;;63.50;50.70;;;12.10;99.90;;;;;;4844913;29;20485;-94
2023/04/23 07:33:41;;;;;;;58.95;48.45;;;12.20;99.90;;;;;;4830328;29;20429;-94
2023/04/23 07:36:57;;;;;;;66.20;51.42;;;12.10;99.90;;;;;;4853792;29;20507;-94
2023/04/23 07:39:59;;;;;;;;;;;;;;;;;;;;;
2023/04/23 07:45:48;;;;;;;55.25;46.88;;;12.40;99.90;;;;;;5095003;23;20495;-94
2023/04/23 07:48:58;;;;;;;56.70;46.97;;;12.70;99.90;;;;;;4803141;29;20453;-94
2023/04/23 07:51:46;;;;;;;49.65;43.55;;;12.70;99.90;;;;;;4765417;30;20492;-93
2023/04/23 07:57:37;;;;;;;;;;;;;;;;;;;;;
2023/04/23 08:13:43;;;;;;;44.63;39.75;;;13.20;99.90;;;;;;4856774;29;20467;-95
2023/04/23 08:30:11;;;;;;;39.38;35.22;;;13.90;99.90;;;;;;4872914;27;20457;-92
2023/04/23 08:32:39;;;;;;;35.72;31.83;;;14.00;99.90;;;;;;4840790;29;20444;-90
2023/04/23 08:35:06;;;;;;;32.67;29.15;;;14.20;99.90;;;;;;4841538;29;20475;-92
2023/04/23 08:37:33;;;;;;;34.25;30.58;;;14.20;99.90;;;;;;4842735;29;20421;-89
2023/04/23 08:40:00;;;;;;;34.15;30.65;;;14.40;99.90;;;;;;4840230;29;20424;-91
2023/04/23 08:42:51;;;;;;;36.30;32.40;;;14.40;99.90;;;;;;4842757;29;20424;-94
2023/04/23 08:45:18;;;;;;;35.75;31.85;;;14.50;99.90;;;;;;4839857;29;20440;-92
2023/04/23 08:47:46;;;;;;;33.10;29.70;;;14.80;99.90;;;;;;4842304;29;20401;-91
2023/04/23 08:50:18;;;;;;;33.20;29.80;;;14.70;99.90;;;;;;4841405;29;20773;-93
2023/04/23 08:52:49;;;;;;;31.85;28.60;;;14.80;99.90;;;;;;4841488;29;20722;-92
2023/04/23 08:55:17;;;;;;;27.13;24.38;;;14.90;99.90;;;;;;4843788;29;20420;-92
2023/04/23 08:57:44;;;;;;;31.05;27.75;;;15.00;99.90;;;;;;4841041;29;20460;-92
2023/04/23 09:00:11;;;;;;;28.13;25.13;;;15.10;99.90;;;;;;4842666;29;20499;-93
2023/04/23 09:02:40;;;;;;;28.63;25.33;;;15.10;99.90;;;;;;4841196;29;20428;-91
2023/04/23 09:05:07;;;;;;;28.83;25.90;;;15.20;99.90;;;;;;4843444;29;20445;-93
2023/04/23 09:07:34;;;;;;;25.73;23.00;;;15.30;99.90;;;;;;4842631;29;20425;-91
2023/04/23 09:10:04;;;;;;;20.93;18.73;;;15.70;99.90;;;;;;4842112;29;20892;-92
2023/04/23 09:12:31;;;;;;;22.13;19.83;;;15.50;99.90;;;;;;4843437;29;20865;-92
2023/04/23 09:14:57;;;;;;;22.02;19.63;;;15.50;99.90;;;;;;4840226;29;20456;-91
2023/04/23 09:17:26;;;;;;;20.47;18.30;;;15.40;99.90;;;;;;4843674;29;20855;-91
2023/04/23 09:19:53;;;;;;;20.10;18.10;;;15.30;99.90;;;;;;4840682;29;20411;-91
2023/04/23 09:22:42;;;;;;;20.52;18.33;;;15.50;99.90;;;;;;4843336;29;20834;-92
2023/04/23 09:25:10;;;;;;;19.75;17.80;;;15.30;99.90;;;;;;4842705;29;20845;-92
2023/04/23 09:27:35;;;;;;;20.00;18.00;;;15.30;99.90;;;;;;4840997;29;20778;-93
2023/04/23 09:30:07;;;;;;;18.90;16.95;;;15.50;99.90;;;;;;4842339;29;20519;-92
2023/04/23 09:32:34;;;;;;;18.60;16.63;;;15.20;99.90;;;;;;4840761;29;20436;-93
2023/04/23 09:35:02;;;;;;;18.00;15.80;;;15.40;99.90;;;;;;4842999;29;20472;-92
2023/04/23 09:37:28;;;;;;;17.98;15.18;;;16.10;99.90;;;;;;4841403;29;20434;-91
2023/04/23 09:39:58;;;;;;;16.95;15.18;;;15.60;99.90;;;;;;4842982;29;20523;-92
2023/04/23 09:42:26;;;;;;;15.85;14.20;;;15.70;99.90;;;;;;4841976;29;20432;-91
2023/04/23 09:44:57;;;;;;;15.02;13.30;;;16.00;99.90;;;;;;4839709;29;20530;-91
2023/04/23 09:48:06;;;;;;;13.82;11.95;;;16.00;99.90;;;;;;4850478;29;20437;-94
2023/04/23 09:51:00;;;;;;;15.18;11.35;;;16.20;99.90;;;;;;5252532;24;20471;-96
2023/04/23 09:56:38;;;;;;;12.23;9.15;;;16.40;99.90;;;;;;5697808;23;20547;-92
2023/04/23 09:59:36;;;;;;;9.37;6.63;;;16.40;99.90;;;;;;4888003;24;20452;-92
2023/04/23 11:51:10;;;;;;;5.47;1.58;;;21.60;54.70;;;;;;1608446;23;20816;-90
2023/04/23 11:53:43;;;;;;;5.40;1.90;;;21.50;54.30;;;;;;4858341;29;20482;-89
2023/04/23 11:56:09;;;;;;;5.13;1.52;;;21.50;52.60;;;;;;4861779;29;20802;-85
2023/04/23 11:58:34;;;;;;;5.22;1.25;;;21.50;57.90;;;;;;4860621;29;20942;-86
2023/04/23 12:01:01;;;;;;;4.00;0.97;;;21.60;54.80;;;;;;4876894;29;20487;-86
2023/04/23 12:03:27;;;;;;;4.63;0.85;;;22.10;51.90;;;;;;4866611;29;20433;-84
2023/04/23 12:05:55;;;;;;;3.67;0.90;;;22.30;49.80;;;;;;4843145;29;20440;-85
2023/04/23 12:08:20;;;;;;;5.38;0.70;;;22.30;49.10;;;;;;4858077;29;20469;-87
2023/04/23 12:10:51;;;;;;;4.55;0.80;;;21.90;49.20;;;;;;4848624;29;20923;-87
2023/04/23 12:13:20;;;;;;;4.90;0.95;;;21.60;51.40;;;;;;4842233;29;20432;-86
2023/04/23 12:15:47;;;;;;;3.73;0.90;;;21.90;55.30;;;;;;4857192;29;21186;-87
2023/04/23 12:18:12;;;;;;;5.30;0.77;;;21.70;55.10;;;;;;4855717;29;20440;-86
2023/04/23 12:20:39;;;;;;;6.10;0.85;;;21.30;49.80;;;;;;4840486;29;20869;-91
2023/04/23 12:23:05;;;;;;;4.25;0.70;;;21.40;51.60;;;;;;4858196;29;20420;-89
2023/04/23 12:25:32;;;;;;;4.72;0.93;;;21.00;52.30;;;;;;4867883;29;21315;-91
2023/04/23 12:27:59;;;;;;;4.88;0.80;;;20.70;52.70;;;;;;4861334;29;20415;-85
2023/04/23 12:30:33;;;;;;;4.90;0.90;;;20.50;54.10;;;;;;4859886;29;20455;-86
2023/04/23 12:33:05;;;;;;;3.73;0.70;;;20.60;52.80;;;;;;4869871;29;20547;-86
2023/04/23 12:35:41;;;;;;;4.35;0.50;;;20.70;55.20;;;;;;4872560;29;20462;-86
2023/04/23 12:38:07;;;;;;;3.58;0.77;;;21.00;54.30;;;;;;4873247;29;20939;-88
2023/04/23 12:40:33;;;;;;;3.72;0.68;;;21.10;51.30;;;;;;4860703;29;20415;-85
2023/04/23 12:42:59;;;;;;;4.05;0.50;;;21.10;52.10;;;;;;4874157;29;20437;-85
2023/04/23 12:45:24;;;;;;;5.55;0.90;;;21.00;52.90;;;;;;4872694;29;20897;-86
2023/04/23 12:47:50;;;;;;;6.10;0.60;;;20.80;52.10;;;;;;4852474;29;20449;-86
2023/04/23 12:50:16;;;;;;;4.20;0.60;;;20.80;49.90;;;;;;4850793;29;20479;-87
2023/04/23 12:52:42;;;;;;;4.33;0.53;;;20.90;50.10;;;;;;4858665;29;20574;-88
2023/04/23 12:55:07;;;;;;;3.95;0.60;;;20.90;49.20;;;;;;4851061;29;21026;-88
2023/04/23 12:57:33;;;;;;;5.82;1.05;;;21.10;50.70;;;;;;4867502;29;20446;-86
2023/04/23 12:59:59;;;;;;;4.43;0.60;;;21.20;50.70;;;;;;4865050;29;20882;-86
2023/04/23 13:02:25;;;;;;;5.20;0.57;;;21.10;48.30;;;;;;4852777;29;20530;-86
2023/04/23 13:04:53;;;;;;;4.07;0.67;;;21.40;49.80;;;;;;4866198;29;20454;-85
2023/04/23 13:07:18;;;;;;;4.43;0.68;;;21.30;49.70;;;;;;4863101;29;21278;-85
2023/04/23 13:09:44;;;;;;;3.25;0.50;;;21.30;49.90;;;;;;4841618;29;20433;-85
2023/04/23 13:12:10;;;;;;;5.43;0.70;;;20.80;49.70;;;;;;4869717;29;20454;-87
2023/04/23 13:14:35;;;;;;;3.47;0.40;;;21.00;51.40;;;;;;4874658;29;20435;-90
2023/04/23 13:17:01;;;;;;;5.73;0.40;;;21.10;50.80;;;;;;4852524;29;20472;-87
2023/04/23 13:19:26;;;;;;;4.63;0.70;;;21.30;52.80;;;;;;4859193;29;20469;-87
2023/04/23 13:21:52;;;;;;;3.22;0.50;;;21.60;48.50;;;;;;4840178;29;20461;-87
2023/04/23 13:24:18;;;;;;;5.63;0.60;;;21.60;48.00;;;;;;4856833;29;20449;-88
2023/04/23 13:26:43;;;;;;;4.82;0.68;;;21.70;49.10;;;;;;4855831;29;20893;-87
2023/04/23 13:29:09;;;;;;;4.53;0.77;;;21.90;49.00;;;;;;4840239;29;20432;-88
2023/04/23 13:31:34;;;;;;;4.30;0.68;;;22.10;49.90;;;;;;4851837;29;20454;-89
2023/04/23 13:34:01;;;;;;;4.32;0.40;;;21.80;48.60;;;;;;4864261;29;20529;-87
2023/04/23 13:36:27;;;;;;;4.93;0.43;;;21.80;50.10;;;;;;4860066;29;20438;-88
2023/04/23 13:38:53;;;;;;;5.00;0.50;;;22.00;49.60;;;;;;4852281;29;20439;-88
2023/04/23 13:41:18;;;;;;;3.55;0.40;;;21.80;46.80;;;;;;4853056;29;20945;-88
2023/04/23 13:43:44;;;;;;;5.17;0.50;;;21.90;47.60;;;;;;4868428;29;20438;-88
2023/04/23 13:46:10;;;;;;;3.72;0.50;;;22.10;45.90;;;;;;4866567;29;20447;-88
2023/04/23 13:48:35;;;;;;;4.37;0.47;;;22.50;46.10;;;;;;4851790;29;20818;-89
2023/04/23 13:51:01;;;;;;;3.38;0.65;;;22.60;50.30;;;;;;4850601;29;20434;-89
2023/04/23 13:53:30;;;;;;;4.35;0.43;;;23.00;45.20;;;;;;4869390;29;20490;-88
2023/04/23 13:55:58;;;;;;;3.67;0.50;;;22.90;47.70;;;;;;4864206;29;20443;-87
2023/04/23 13:58:23;;;;;;;4.17;0.60;;;23.00;45.90;;;;;;4868374;29;20469;-89
2023/04/23 14:00:49;;;;;;;2.35;0.43;;;23.00;44.40;;;;;;4869373;29;20442;-92
2023/04/23 14:03:15;;;;;;;4.18;0.60;;;22.60;44.60;;;;;;4858466;29;20905;-88
2023/04/23 14:05:41;;;;;;;4.07;0.50;;;22.40;47.90;;;;;;4869174;29;20457;-88
2023/04/23 14:08:07;;;;;;;3.80;0.60;;;22.30;47.50;;;;;;4858850;29;20423;-89
2023/04/23 14:10:33;;;;;;;4.63;0.50;;;22.20;48.10;;;;;;4843764;29;20422;-89
2023/04/23 14:12:59;;;;;;;4.68;0.60;;;21.90;46.80;;;;;;4857736;29;20438;-88
2023/04/23 14:15:25;;;;;;;3.87;0.60;;;22.00;47.30;;;;;;4875054;29;20438;-87
2023/04/23 14:17:51;;;;;;;4.47;0.50;;;21.80;48.50;;;;;;4857359;29;20459;-88
2023/04/23 14:20:18;;;;;;;3.37;0.47;;;21.50;49.00;;;;;;4859382;29;20446;-90
2023/04/23 14:22:49;;;;;;;5.90;0.70;;;21.40;48.80;;;;;;4857951;29;20529;-89
2023/04/23 14:25:38;;;;;;;4.38;0.70;;;21.50;50.50;;;;;;4843967;29;21032;-88
2023/04/23 14:28:38;;;;;;;4.57;0.50;;;21.40;49.50;;;;;;4865806;29;20990;-87
2023/04/23 14:31:04;;;;;;;5.32;0.75;;;21.30;47.40;;;;;;4871150;29;20975;-90
2023/04/23 14:33:30;;;;;;;5.90;0.70;;;21.50;50.20;;;;;;4859972;29;20442;-85
2023/04/23 14:35:56;;;;;;;4.25;0.40;;;21.50;50.10;;;;;;4867681;29;20489;-87
2023/04/23 14:38:21;;;;;;;4.97;0.60;;;21.30;48.30;;;;;;4854565;29;20448;-89
2023/04/23 14:40:47;;;;;;;4.50;0.60;;;21.10;49.00;;;;;;4855733;29;20975;-88
2023/04/23 14:43:13;;;;;;;4.13;0.50;;;21.00;48.10;;;;;;4857745;29;20434;-88
2023/04/23 14:45:38;;;;;;;4.03;0.40;;;21.00;51.00;;;;;;4870839;29;20547;-88
2023/04/23 14:48:04;;;;;;;5.35;0.50;;;21.10;49.60;;;;;;4864792;29;20466;-88
2023/04/23 14:50:30;;;;;;;4.05;0.50;;;20.80;50.30;;;;;;4852934;29;20539;-88
2023/04/23 14:52:57;;;;;;;3.60;0.40;;;20.80;49.30;;;;;;4871454;29;20495;-88
2023/04/23 14:55:23;;;;;;;2.78;0.45;;;20.70;48.00;;;;;;4866969;29;20436;-88
2023/04/23 14:57:49;;;;;;;3.67;0.30;;;20.50;50.90;;;;;;4852597;29;20453;-88
2023/04/23 15:00:16;;;;;;;3.50;0.30;;;20.40;49.10;;;;;;4868783;29;20522;-88
2023/04/23 15:02:45;;;;;;;3.05;0.43;;;20.40;50.30;;;;;;4846444;29;20428;-90
2023/04/23 15:05:11;;;;;;;3.97;0.38;;;20.40;51.40;;;;;;4857302;29;21085;-88
2023/04/23 15:07:37;;;;;;;2.80;0.50;;;20.50;49.20;;;;;;4844585;29;20432;-88
2023/04/23 15:10:08;;;;;;;3.47;0.30;;;20.70;48.50;;;;;;4857216;29;20835;-88
2023/04/23 15:13:08;;;;;;;2.92;0.30;;;20.40;49.80;;;;;;4866307;29;20442;-90
2023/04/23 16:57:34;;;;;;;;;;;;;;;;;;;;;